DFOR weather

Orodara Airport
Orodara, Kenedougou, Burkina Faso

Public forecast

Using degrees Celsius for public forecast. Weather courtesy of forecast.io.

Closest aviation weather report (METAR) to Orodara Airport

Closest report is Bobo Dioulasso Airport, 37.0 nm (68.6 km) ENE. Retrieved 2020/07/07 11:00 UTC (43 minutes ago):

DFOO 071100Z 24008KT CAVOK 31/24 Q1012

Closest aviation forecast (TAF) to Orodara Airport

Closest forecast is Bobo Dioulasso Airport, 37.0 nm (68.6 km) ENE. Retrieved 2020/07/07 06:09 UTC (6 hours ago):

TAF DFOO 070500Z 0706/0806 22008KT 9999 FEW020 TEMPO 0716/0724 4000 TSRA SCT020 SCT030CB